Allen's Hourly Summary for Saturday, October 16, 2021
Hour Temp
(f)
RH
(%)
Solar Rad.
(MJ/m2)
Rainfall
(in)
Wind
(mph)
Battery
(volts)
10/16/2021 12:00 AM 58 47 0 0 1.38 12
10/16/2021 1:00 AM 57 53 0 0 1.91 12
10/16/2021 2:00 AM 56 55 0 0 1.53 11.99
10/16/2021 3:00 AM 55 55 0 0 1.29 10.22
10/16/2021 4:00 AM 54 57 0 0 1.41 10.18
10/16/2021 5:00 AM 52 60 0 0 0.86 10.08
10/16/2021 6:00 AM 51 63 0 0 0.5 9.99
10/16/2021 7:00 AM 50 66 0 0 0.54 10.54
10/16/2021 8:00 AM 49 68 0.02 0 0.45 10.57
10/16/2021 9:00 AM 54 50 0.64 0 0.89 10.34
10/16/2021 10:00 AM 59 38 1.41 0 1.95 11.04
10/16/2021 11:00 AM 63 31 2.04 0 2.65 12.47
10/16/2021 12:00 PM 66 24 2.49 0 3.17 12.8
10/16/2021 1:00 PM 67 21 2.73 0 3.58 12.84
10/16/2021 2:00 PM 69 20 2.73 0 3.38 12.82
10/16/2021 3:00 PM 70 20 2.51 0 3.11 12.84
10/16/2021 4:00 PM 70 18 2.08 0 3.35 12.84
10/16/2021 5:00 PM 70 19 1.48 0 2.97 12.75
10/16/2021 6:00 PM 69 20 0.78 0 2.77 12.38
10/16/2021 7:00 PM 67 22 0.09 0 0.84 12.49
10/16/2021 8:00 PM 61 31 0 0 0 12.46
10/16/2021 9:00 PM 58 42 0 0 0 12.44
10/16/2021 10:00 PM 57 44 0 0 0 12.43
10/16/2021 11:00 PM 56 44 0 0 0 12.42
Data Summary 59 40 19.00 0.00 1.61 11.79